sensor_id;sensor_type;location;lat;lon;timestamp;P1;durP1;ratioP1;P2;durP2;ratioP2
61897;SDS011;47850;50.274;18.908;2022-07-06T00:02:23;32.60;;;19.90;;
61897;SDS011;47850;50.274;18.908;2022-07-06T00:04:50;36.00;;;20.60;;
61897;SDS011;47850;50.274;18.908;2022-07-06T00:07:16;31.60;;;19.20;;
61897;SDS011;47850;50.274;18.908;2022-07-06T00:09:43;39.50;;;21.00;;
61897;SDS011;47850;50.274;18.908;2022-07-06T00:12:09;32.00;;;18.60;;
61897;SDS011;47850;50.274;18.908;2022-07-06T00:14:36;51.30;;;30.30;;
61897;SDS011;47850;50.274;18.908;2022-07-06T00:17:03;38.20;;;22.10;;
61897;SDS011;47850;50.274;18.908;2022-07-06T00:19:29;36.00;;;22.00;;
61897;SDS011;47850;50.274;18.908;2022-07-06T00:21:56;41.10;;;22.70;;
61897;SDS011;47850;50.274;18.908;2022-07-06T00:24:22;43.40;;;24.60;;
61897;SDS011;47850;50.274;18.908;2022-07-06T00:26:49;38.20;;;20.80;;
61897;SDS011;47850;50.274;18.908;2022-07-06T00:29:16;38.00;;;22.70;;
61897;SDS011;47850;50.274;18.908;2022-07-06T00:31:42;44.10;;;24.70;;
61897;SDS011;47850;50.274;18.908;2022-07-06T00:34:09;41.50;;;24.50;;
61897;SDS011;47850;50.274;18.908;2022-07-06T00:36:35;40.90;;;24.90;;
61897;SDS011;47850;50.274;18.908;2022-07-06T00:39:02;40.10;;;27.40;;
61897;SDS011;47850;50.274;18.908;2022-07-06T00:41:28;45.80;;;28.80;;
61897;SDS011;47850;50.274;18.908;2022-07-06T00:43:55;46.50;;;30.60;;
61897;SDS011;47850;50.274;18.908;2022-07-06T00:46:32;47.20;;;31.30;;
61897;SDS011;47850;50.274;18.908;2022-07-06T00:48:59;50.30;;;33.10;;
61897;SDS011;47850;50.274;18.908;2022-07-06T00:51:29;52.00;;;34.00;;
61897;SDS011;47850;50.274;18.908;2022-07-06T00:53:58;50.30;;;36.30;;
61897;SDS011;47850;50.274;18.908;2022-07-06T00:56:29;49.60;;;34.80;;
61897;SDS011;47850;50.274;18.908;2022-07-06T00:58:58;55.20;;;37.90;;
61897;SDS011;47850;50.274;18.908;2022-07-06T01:01:28;55.40;;;38.10;;
61897;SDS011;47850;50.274;18.908;2022-07-06T01:03:54;57.80;;;37.60;;
61897;SDS011;47850;50.274;18.908;2022-07-06T01:06:22;50.10;;;34.80;;
61897;SDS011;47850;50.274;18.908;2022-07-06T01:08:48;56.10;;;35.80;;
61897;SDS011;47850;50.274;18.908;2022-07-06T01:11:16;56.30;;;35.40;;
61897;SDS011;47850;50.274;18.908;2022-07-06T01:13:44;56.10;;;36.50;;
61897;SDS011;47850;50.274;18.908;2022-07-06T01:16:11;55.50;;;35.40;;
61897;SDS011;47850;50.274;18.908;2022-07-06T01:18:38;51.80;;;35.30;;
61897;SDS011;47850;50.274;18.908;2022-07-06T01:21:11;49.00;;;32.50;;
61897;SDS011;47850;50.274;18.908;2022-07-06T01:23:39;43.10;;;30.70;;
61897;SDS011;47850;50.274;18.908;2022-07-06T01:26:14;41.80;;;29.40;;
61897;SDS011;47850;50.274;18.908;2022-07-06T01:28:43;38.30;;;29.80;;
61897;SDS011;47850;50.274;18.908;2022-07-06T01:31:21;42.40;;;29.10;;
61897;SDS011;47850;50.274;18.908;2022-07-06T01:33:49;38.00;;;27.20;;
61897;SDS011;47850;50.274;18.908;2022-07-06T01:36:18;35.20;;;24.30;;
61897;SDS011;47850;50.274;18.908;2022-07-06T01:38:54;34.70;;;23.30;;
61897;SDS011;47850;50.274;18.908;2022-07-06T01:41:24;34.70;;;25.30;;
61897;SDS011;47850;50.274;18.908;2022-07-06T01:43:51;37.90;;;25.00;;
61897;SDS011;47850;50.274;18.908;2022-07-06T01:46:18;34.00;;;24.10;;
61897;SDS011;47850;50.274;18.908;2022-07-06T01:48:45;34.70;;;24.80;;
61897;SDS011;47850;50.274;18.908;2022-07-06T01:51:12;35.70;;;24.50;;
61897;SDS011;47850;50.274;18.908;2022-07-06T01:53:39;32.90;;;22.90;;
61897;SDS011;47850;50.274;18.908;2022-07-06T01:56:06;33.50;;;24.70;;
61897;SDS011;47850;50.274;18.908;2022-07-06T01:58:33;43.10;;;28.90;;
61897;SDS011;47850;50.274;18.908;2022-07-06T02:01:00;37.00;;;29.10;;
61897;SDS011;47850;50.274;18.908;2022-07-06T02:03:26;67.60;;;44.00;;
61897;SDS011;47850;50.274;18.908;2022-07-06T02:05:53;66.20;;;46.30;;
61897;SDS011;47850;50.274;18.908;2022-07-06T02:08:20;46.60;;;32.50;;
61897;SDS011;47850;50.274;18.908;2022-07-06T02:10:46;44.80;;;30.50;;
61897;SDS011;47850;50.274;18.908;2022-07-06T02:13:13;43.10;;;30.30;;
61897;SDS011;47850;50.274;18.908;2022-07-06T02:15:39;33.00;;;25.50;;
61897;SDS011;47850;50.274;18.908;2022-07-06T02:18:06;32.20;;;24.40;;
61897;SDS011;47850;50.274;18.908;2022-07-06T02:20:33;33.30;;;22.40;;
61897;SDS011;47850;50.274;18.908;2022-07-06T02:22:59;34.10;;;20.40;;
61897;SDS011;47850;50.274;18.908;2022-07-06T02:25:26;25.20;;;20.10;;
61897;SDS011;47850;50.274;18.908;2022-07-06T02:27:52;22.40;;;19.00;;
61897;SDS011;47850;50.274;18.908;2022-07-06T02:30:19;27.90;;;20.30;;
61897;SDS011;47850;50.274;18.908;2022-07-06T02:32:46;24.00;;;18.90;;
61897;SDS011;47850;50.274;18.908;2022-07-06T02:35:13;22.70;;;17.90;;
61897;SDS011;47850;50.274;18.908;2022-07-06T02:37:39;23.00;;;17.10;;
61897;SDS011;47850;50.274;18.908;2022-07-06T02:40:06;29.80;;;19.80;;
61897;SDS011;47850;50.274;18.908;2022-07-06T02:42:33;19.50;;;16.20;;
61897;SDS011;47850;50.274;18.908;2022-07-06T02:45:00;20.80;;;15.60;;
61897;SDS011;47850;50.274;18.908;2022-07-06T02:47:27;21.30;;;16.10;;
61897;SDS011;47850;50.274;18.908;2022-07-06T02:49:53;20.60;;;15.70;;
61897;SDS011;47850;50.274;18.908;2022-07-06T02:52:20;20.40;;;14.80;;
61897;SDS011;47850;50.274;18.908;2022-07-06T02:54:47;20.90;;;15.60;;
61897;SDS011;47850;50.274;18.908;2022-07-06T02:57:15;20.80;;;14.70;;
61897;SDS011;47850;50.274;18.908;2022-07-06T02:59:42;23.00;;;14.50;;
61897;SDS011;47850;50.274;18.908;2022-07-06T03:02:09;19.00;;;13.40;;
61897;SDS011;47850;50.274;18.908;2022-07-06T03:04:35;19.20;;;14.50;;
61897;SDS011;47850;50.274;18.908;2022-07-06T03:07:02;21.10;;;14.00;;
61897;SDS011;47850;50.274;18.908;2022-07-06T03:09:29;19.60;;;14.00;;
61897;SDS011;47850;50.274;18.908;2022-07-06T03:11:55;24.40;;;13.90;;
61897;SDS011;47850;50.274;18.908;2022-07-06T03:14:22;20.50;;;15.20;;
61897;SDS011;47850;50.274;18.908;2022-07-06T03:16:48;19.10;;;14.60;;
61897;SDS011;47850;50.274;18.908;2022-07-06T03:19:15;20.50;;;15.10;;
61897;SDS011;47850;50.274;18.908;2022-07-06T03:21:41;16.70;;;13.20;;
61897;SDS011;47850;50.274;18.908;2022-07-06T03:24:08;21.10;;;15.20;;
61897;SDS011;47850;50.274;18.908;2022-07-06T03:26:34;23.00;;;15.70;;
61897;SDS011;47850;50.274;18.908;2022-07-06T03:29:01;18.20;;;14.20;;
61897;SDS011;47850;50.274;18.908;2022-07-06T03:31:27;21.20;;;15.10;;
61897;SDS011;47850;50.274;18.908;2022-07-06T03:33:54;17.50;;;13.60;;
61897;SDS011;47850;50.274;18.908;2022-07-06T03:36:22;16.40;;;13.60;;
61897;SDS011;47850;50.274;18.908;2022-07-06T03:38:48;21.20;;;15.40;;
61897;SDS011;47850;50.274;18.908;2022-07-06T03:41:15;20.30;;;15.90;;
61897;SDS011;47850;50.274;18.908;2022-07-06T03:43:41;21.40;;;15.80;;
61897;SDS011;47850;50.274;18.908;2022-07-06T03:46:08;23.40;;;16.80;;
61897;SDS011;47850;50.274;18.908;2022-07-06T03:48:35;19.70;;;12.80;;
61897;SDS011;47850;50.274;18.908;2022-07-06T03:51:01;25.10;;;17.80;;
61897;SDS011;47850;50.274;18.908;2022-07-06T03:53:28;26.20;;;17.40;;
61897;SDS011;47850;50.274;18.908;2022-07-06T03:55:54;33.30;;;17.90;;
61897;SDS011;47850;50.274;18.908;2022-07-06T03:58:40;28.60;;;17.30;;
61897;SDS011;47850;50.274;18.908;2022-07-06T04:01:06;24.10;;;17.90;;
61897;SDS011;47850;50.274;18.908;2022-07-06T04:03:33;34.60;;;17.80;;
61897;SDS011;47850;50.274;18.908;2022-07-06T04:05:59;24.60;;;17.80;;
61897;SDS011;47850;50.274;18.908;2022-07-06T04:08:26;25.90;;;18.40;;
61897;SDS011;47850;50.274;18.908;2022-07-06T04:10:52;27.70;;;20.30;;
61897;SDS011;47850;50.274;18.908;2022-07-06T04:13:19;31.30;;;18.90;;
61897;SDS011;47850;50.274;18.908;2022-07-06T04:15:45;30.30;;;19.30;;
61897;SDS011;47850;50.274;18.908;2022-07-06T04:18:12;28.80;;;17.80;;
61897;SDS011;47850;50.274;18.908;2022-07-06T04:20:39;24.50;;;17.20;;
61897;SDS011;47850;50.274;18.908;2022-07-06T04:23:05;33.60;;;18.40;;
61897;SDS011;47850;50.274;18.908;2022-07-06T04:25:32;36.90;;;20.20;;
61897;SDS011;47850;50.274;18.908;2022-07-06T04:27:58;28.70;;;18.90;;
61897;SDS011;47850;50.274;18.908;2022-07-06T04:30:25;39.10;;;21.40;;
61897;SDS011;47850;50.274;18.908;2022-07-06T04:32:52;31.70;;;20.20;;
61897;SDS011;47850;50.274;18.908;2022-07-06T04:35:18;33.40;;;21.70;;
61897;SDS011;47850;50.274;18.908;2022-07-06T04:37:45;29.60;;;18.40;;
61897;SDS011;47850;50.274;18.908;2022-07-06T04:40:12;29.80;;;18.50;;
61897;SDS011;47850;50.274;18.908;2022-07-06T04:42:39;31.80;;;20.10;;
61897;SDS011;47850;50.274;18.908;2022-07-06T04:45:07;31.00;;;19.60;;
61897;SDS011;47850;50.274;18.908;2022-07-06T04:47:35;30.80;;;19.60;;
61897;SDS011;47850;50.274;18.908;2022-07-06T04:50:03;28.30;;;19.40;;
61897;SDS011;47850;50.274;18.908;2022-07-06T04:52:30;30.20;;;19.90;;
61897;SDS011;47850;50.274;18.908;2022-07-06T04:54:56;31.10;;;19.40;;
61897;SDS011;47850;50.274;18.908;2022-07-06T04:57:23;31.70;;;19.40;;
61897;SDS011;47850;50.274;18.908;2022-07-06T04:59:52;24.20;;;16.50;;
61897;SDS011;47850;50.274;18.908;2022-07-06T05:02:18;26.50;;;18.50;;
61897;SDS011;47850;50.274;18.908;2022-07-06T05:04:45;32.50;;;19.90;;
61897;SDS011;47850;50.274;18.908;2022-07-06T05:07:12;29.20;;;18.00;;
61897;SDS011;47850;50.274;18.908;2022-07-06T05:09:38;29.60;;;19.70;;
61897;SDS011;47850;50.274;18.908;2022-07-06T05:12:05;34.40;;;19.90;;
61897;SDS011;47850;50.274;18.908;2022-07-06T05:14:32;31.30;;;20.30;;
61897;SDS011;47850;50.274;18.908;2022-07-06T05:16:58;30.80;;;18.40;;
61897;SDS011;47850;50.274;18.908;2022-07-06T05:19:25;32.20;;;19.80;;
61897;SDS011;47850;50.274;18.908;2022-07-06T05:21:51;37.40;;;21.70;;
61897;SDS011;47850;50.274;18.908;2022-07-06T05:24:18;32.40;;;19.80;;
61897;SDS011;47850;50.274;18.908;2022-07-06T05:26:45;28.30;;;17.90;;
61897;SDS011;47850;50.274;18.908;2022-07-06T05:29:12;27.60;;;17.80;;
61897;SDS011;47850;50.274;18.908;2022-07-06T05:31:39;29.20;;;18.30;;
61897;SDS011;47850;50.274;18.908;2022-07-06T05:34:05;28.00;;;17.60;;
61897;SDS011;47850;50.274;18.908;2022-07-06T05:36:32;26.80;;;18.50;;
61897;SDS011;47850;50.274;18.908;2022-07-06T05:38:58;28.60;;;18.10;;
61897;SDS011;47850;50.274;18.908;2022-07-06T05:41:25;27.30;;;18.70;;
61897;SDS011;47850;50.274;18.908;2022-07-06T05:43:51;29.70;;;17.70;;
61897;SDS011;47850;50.274;18.908;2022-07-06T05:46:18;27.60;;;19.40;;
61897;SDS011;47850;50.274;18.908;2022-07-06T05:48:45;28.00;;;18.80;;
61897;SDS011;47850;50.274;18.908;2022-07-06T05:51:30;26.10;;;15.60;;
61897;SDS011;47850;50.274;18.908;2022-07-06T05:53:57;29.30;;;21.60;;
61897;SDS011;47850;50.274;18.908;2022-07-06T05:56:23;36.70;;;22.80;;
61897;SDS011;47850;50.274;18.908;2022-07-06T05:58:50;29.00;;;17.80;;
61897;SDS011;47850;50.274;18.908;2022-07-06T06:01:16;31.20;;;19.70;;
61897;SDS011;47850;50.274;18.908;2022-07-06T06:03:43;25.20;;;19.50;;
61897;SDS011;47850;50.274;18.908;2022-07-06T06:06:10;26.50;;;19.00;;
61897;SDS011;47850;50.274;18.908;2022-07-06T06:08:36;26.60;;;18.60;;
61897;SDS011;47850;50.274;18.908;2022-07-06T06:11:03;23.70;;;18.50;;
61897;SDS011;47850;50.274;18.908;2022-07-06T06:13:29;28.70;;;18.50;;
61897;SDS011;47850;50.274;18.908;2022-07-06T06:15:56;24.50;;;17.20;;
61897;SDS011;47850;50.274;18.908;2022-07-06T06:18:22;20.10;;;16.40;;
61897;SDS011;47850;50.274;18.908;2022-07-06T06:20:49;22.00;;;16.20;;
61897;SDS011;47850;50.274;18.908;2022-07-06T06:23:15;37.20;;;23.90;;
61897;SDS011;47850;50.274;18.908;2022-07-06T06:25:42;19.20;;;14.20;;
61897;SDS011;47850;50.274;18.908;2022-07-06T06:28:09;19.00;;;12.80;;
61897;SDS011;47850;50.274;18.908;2022-07-06T06:30:37;27.50;;;19.10;;
61897;SDS011;47850;50.274;18.908;2022-07-06T06:33:11;23.00;;;15.70;;
61897;SDS011;47850;50.274;18.908;2022-07-06T06:35:46;26.00;;;18.60;;
61897;SDS011;47850;50.274;18.908;2022-07-06T06:38:16;27.10;;;20.40;;
61897;SDS011;47850;50.274;18.908;2022-07-06T06:40:45;24.20;;;17.50;;
61897;SDS011;47850;50.274;18.908;2022-07-06T06:43:11;22.90;;;17.00;;
61897;SDS011;47850;50.274;18.908;2022-07-06T06:45:38;21.00;;;15.20;;
61897;SDS011;47850;50.274;18.908;2022-07-06T06:48:06;20.80;;;17.20;;
61897;SDS011;47850;50.274;18.908;2022-07-06T06:50:33;16.80;;;13.40;;
61897;SDS011;47850;50.274;18.908;2022-07-06T06:53:00;20.30;;;13.90;;
61897;SDS011;47850;50.274;18.908;2022-07-06T06:55:28;20.80;;;14.70;;
61897;SDS011;47850;50.274;18.908;2022-07-06T06:57:54;15.40;;;12.90;;
61897;SDS011;47850;50.274;18.908;2022-07-06T07:00:21;15.00;;;11.80;;
61897;SDS011;47850;50.274;18.908;2022-07-06T07:02:48;11.20;;;8.60;;
61897;SDS011;47850;50.274;18.908;2022-07-06T07:05:14;14.50;;;10.70;;
61897;SDS011;47850;50.274;18.908;2022-07-06T07:07:41;14.40;;;9.00;;
61897;SDS011;47850;50.274;18.908;2022-07-06T07:10:07;8.20;;;7.40;;
61897;SDS011;47850;50.274;18.908;2022-07-06T07:12:34;11.30;;;8.90;;
61897;SDS011;47850;50.274;18.908;2022-07-06T07:15:01;10.30;;;7.20;;
61897;SDS011;47850;50.274;18.908;2022-07-06T07:17:28;10.20;;;6.90;;
61897;SDS011;47850;50.274;18.908;2022-07-06T07:19:55;16.00;;;7.10;;
61897;SDS011;47850;50.274;18.908;2022-07-06T07:22:23;16.70;;;9.30;;
61897;SDS011;47850;50.274;18.908;2022-07-06T07:24:50;14.70;;;8.00;;
61897;SDS011;47850;50.274;18.908;2022-07-06T07:27:17;16.10;;;10.00;;
61897;SDS011;47850;50.274;18.908;2022-07-06T07:29:43;16.70;;;10.80;;
61897;SDS011;47850;50.274;18.908;2022-07-06T07:32:10;12.70;;;9.80;;
61897;SDS011;47850;50.274;18.908;2022-07-06T07:34:37;16.50;;;12.20;;
61897;SDS011;47850;50.274;18.908;2022-07-06T07:37:03;13.70;;;10.50;;
61897;SDS011;47850;50.274;18.908;2022-07-06T07:39:30;16.00;;;11.70;;
61897;SDS011;47850;50.274;18.908;2022-07-06T07:41:56;18.80;;;10.90;;
61897;SDS011;47850;50.274;18.908;2022-07-06T07:44:23;17.30;;;11.10;;
61897;SDS011;47850;50.274;18.908;2022-07-06T07:46:51;12.40;;;9.70;;
61897;SDS011;47850;50.274;18.908;2022-07-06T07:49:18;16.00;;;9.00;;
61897;SDS011;47850;50.274;18.908;2022-07-06T07:51:47;17.10;;;8.50;;
61897;SDS011;47850;50.274;18.908;2022-07-06T07:54:15;11.70;;;8.00;;
61897;SDS011;47850;50.274;18.908;2022-07-06T07:56:42;16.50;;;8.30;;
61897;SDS011;47850;50.274;18.908;2022-07-06T07:59:09;15.80;;;8.00;;
61897;SDS011;47850;50.274;18.908;2022-07-06T08:01:36;10.40;;;5.80;;
61897;SDS011;47850;50.274;18.908;2022-07-06T08:04:03;10.30;;;6.40;;
61897;SDS011;47850;50.274;18.908;2022-07-06T08:06:29;11.70;;;5.80;;
61897;SDS011;47850;50.274;18.908;2022-07-06T08:08:56;9.50;;;5.30;;
61897;SDS011;47850;50.274;18.908;2022-07-06T08:11:23;7.90;;;4.50;;
61897;SDS011;47850;50.274;18.908;2022-07-06T08:13:49;8.30;;;4.40;;
61897;SDS011;47850;50.274;18.908;2022-07-06T08:16:16;7.00;;;4.10;;
61897;SDS011;47850;50.274;18.908;2022-07-06T08:18:43;11.90;;;5.60;;
61897;SDS011;47850;50.274;18.908;2022-07-06T08:21:09;12.10;;;4.80;;
61897;SDS011;47850;50.274;18.908;2022-07-06T08:23:37;12.20;;;4.10;;
61897;SDS011;47850;50.274;18.908;2022-07-06T08:26:03;7.50;;;3.90;;
61897;SDS011;47850;50.274;18.908;2022-07-06T08:28:30;4.40;;;3.10;;
61897;SDS011;47850;50.274;18.908;2022-07-06T08:30:57;7.40;;;3.50;;
61897;SDS011;47850;50.274;18.908;2022-07-06T08:33:23;10.40;;;4.00;;
61897;SDS011;47850;50.274;18.908;2022-07-06T08:35:50;7.20;;;3.60;;
61897;SDS011;47850;50.274;18.908;2022-07-06T08:38:17;8.60;;;4.00;;
61897;SDS011;47850;50.274;18.908;2022-07-06T08:40:47;7.70;;;3.50;;
61897;SDS011;47850;50.274;18.908;2022-07-06T08:43:15;8.10;;;3.50;;
61897;SDS011;47850;50.274;18.908;2022-07-06T08:45:42;5.20;;;2.80;;
61897;SDS011;47850;50.274;18.908;2022-07-06T08:48:11;6.10;;;2.80;;
61897;SDS011;47850;50.274;18.908;2022-07-06T08:50:38;5.50;;;2.70;;
61897;SDS011;47850;50.274;18.908;2022-07-06T08:53:05;4.20;;;2.60;;
61897;SDS011;47850;50.274;18.908;2022-07-06T08:55:32;3.40;;;2.50;;
61897;SDS011;47850;50.274;18.908;2022-07-06T08:58:00;6.00;;;2.70;;
61897;SDS011;47850;50.274;18.908;2022-07-06T09:00:26;4.10;;;2.20;;
61897;SDS011;47850;50.274;18.908;2022-07-06T09:02:53;4.30;;;2.20;;
61897;SDS011;47850;50.274;18.908;2022-07-06T09:05:23;2.90;;;2.10;;
61897;SDS011;47850;50.274;18.908;2022-07-06T09:07:50;2.50;;;1.80;;
61897;SDS011;47850;50.274;18.908;2022-07-06T09:10:19;2.80;;;1.70;;
61897;SDS011;47850;50.274;18.908;2022-07-06T09:12:51;7.50;;;2.10;;
61897;SDS011;47850;50.274;18.908;2022-07-06T09:15:17;5.10;;;2.10;;
61897;SDS011;47850;50.274;18.908;2022-07-06T09:17:44;14.80;;;4.00;;
61897;SDS011;47850;50.274;18.908;2022-07-06T09:20:12;7.50;;;3.20;;
61897;SDS011;47850;50.274;18.908;2022-07-06T09:22:39;4.50;;;2.90;;
61897;SDS011;47850;50.274;18.908;2022-07-06T09:25:07;3.90;;;2.50;;
61897;SDS011;47850;50.274;18.908;2022-07-06T09:30:09;3.20;;;2.10;;
61897;SDS011;47850;50.274;18.908;2022-07-06T09:35:08;8.70;;;4.50;;
61897;SDS011;47850;50.274;18.908;2022-07-06T09:37:45;4.20;;;2.30;;
61897;SDS011;47850;50.274;18.908;2022-07-06T09:40:17;3.70;;;2.20;;
61897;SDS011;47850;50.274;18.908;2022-07-06T09:42:45;3.90;;;2.40;;
61897;SDS011;47850;50.274;18.908;2022-07-06T09:45:12;3.20;;;2.10;;
61897;SDS011;47850;50.274;18.908;2022-07-06T09:47:38;3.30;;;1.50;;
61897;SDS011;47850;50.274;18.908;2022-07-06T09:50:07;3.30;;;1.60;;
61897;SDS011;47850;50.274;18.908;2022-07-06T09:52:35;4.30;;;2.30;;
61897;SDS011;47850;50.274;18.908;2022-07-06T09:55:05;4.70;;;2.80;;
61897;SDS011;47850;50.274;18.908;2022-07-06T09:57:51;7.80;;;3.20;;
61897;SDS011;47850;50.274;18.908;2022-07-06T10:00:19;5.40;;;2.20;;
61897;SDS011;47850;50.274;18.908;2022-07-06T10:02:45;5.80;;;2.40;;
61897;SDS011;47850;50.274;18.908;2022-07-06T10:05:15;6.00;;;2.20;;
61897;SDS011;47850;50.274;18.908;2022-07-06T10:07:47;6.20;;;2.30;;
61897;SDS011;47850;50.274;18.908;2022-07-06T10:10:16;5.20;;;1.80;;
61897;SDS011;47850;50.274;18.908;2022-07-06T10:12:44;3.00;;;1.80;;
61897;SDS011;47850;50.274;18.908;2022-07-06T10:15:16;10.20;;;3.80;;
61897;SDS011;47850;50.274;18.908;2022-07-06T10:17:44;3.10;;;1.80;;
61897;SDS011;47850;50.274;18.908;2022-07-06T10:20:13;3.20;;;1.80;;
61897;SDS011;47850;50.274;18.908;2022-07-06T10:22:41;3.50;;;1.70;;
61897;SDS011;47850;50.274;18.908;2022-07-06T10:25:09;3.30;;;1.90;;
61897;SDS011;47850;50.274;18.908;2022-07-06T10:27:36;6.90;;;1.60;;
61897;SDS011;47850;50.274;18.908;2022-07-06T10:30:05;5.50;;;1.90;;
61897;SDS011;47850;50.274;18.908;2022-07-06T10:32:32;7.40;;;1.80;;
61897;SDS011;47850;50.274;18.908;2022-07-06T10:34:58;5.50;;;1.70;;
61897;SDS011;47850;50.274;18.908;2022-07-06T10:37:26;3.80;;;1.60;;
61897;SDS011;47850;50.274;18.908;2022-07-06T10:39:54;5.00;;;1.90;;
61897;SDS011;47850;50.274;18.908;2022-07-06T10:45:11;1.40;;;0.90;;
61897;SDS011;47850;50.274;18.908;2022-07-06T10:47:39;3.70;;;1.20;;
61897;SDS011;47850;50.274;18.908;2022-07-06T10:50:07;2.90;;;1.50;;
61897;SDS011;47850;50.274;18.908;2022-07-06T10:52:53;5.20;;;1.40;;
61897;SDS011;47850;50.274;18.908;2022-07-06T10:55:28;3.30;;;1.40;;
61897;SDS011;47850;50.274;18.908;2022-07-06T10:57:56;4.50;;;1.50;;
61897;SDS011;47850;50.274;18.908;2022-07-06T11:00:22;3.70;;;1.30;;
61897;SDS011;47850;50.274;18.908;2022-07-06T11:02:49;3.50;;;1.40;;
61897;SDS011;47850;50.274;18.908;2022-07-06T11:08:09;1.60;;;1.20;;
61897;SDS011;47850;50.274;18.908;2022-07-06T11:10:46;5.10;;;1.30;;
61897;SDS011;47850;50.274;18.908;2022-07-06T11:13:29;1.80;;;1.30;;
61897;SDS011;47850;50.274;18.908;2022-07-06T11:16:04;2.40;;;1.50;;
61897;SDS011;47850;50.274;18.908;2022-07-06T11:18:41;1.80;;;1.20;;
61897;SDS011;47850;50.274;18.908;2022-07-06T11:21:15;1.90;;;1.30;;
61897;SDS011;47850;50.274;18.908;2022-07-06T11:23:45;2.40;;;1.40;;
61897;SDS011;47850;50.274;18.908;2022-07-06T11:26:14;7.70;;;1.50;;
61897;SDS011;47850;50.274;18.908;2022-07-06T11:28:40;2.00;;;1.40;;
61897;SDS011;47850;50.274;18.908;2022-07-06T11:31:07;2.50;;;1.40;;
61897;SDS011;47850;50.274;18.908;2022-07-06T11:33:34;6.30;;;1.60;;
61897;SDS011;47850;50.274;18.908;2022-07-06T11:36:13;10.30;;;1.20;;
61897;SDS011;47850;50.274;18.908;2022-07-06T11:38:42;2.60;;;1.70;;
61897;SDS011;47850;50.274;18.908;2022-07-06T11:41:10;2.60;;;1.60;;
61897;SDS011;47850;50.274;18.908;2022-07-06T11:43:48;5.50;;;1.80;;
61897;SDS011;47850;50.274;18.908;2022-07-06T11:46:24;5.00;;;1.60;;
61897;SDS011;47850;50.274;18.908;2022-07-06T11:48:59;5.70;;;1.60;;
61897;SDS011;47850;50.274;18.908;2022-07-06T11:51:29;3.60;;;1.70;;
61897;SDS011;47850;50.274;18.908;2022-07-06T11:54:07;4.10;;;1.40;;
61897;SDS011;47850;50.274;18.908;2022-07-06T11:57:12;2.90;;;1.60;;
61897;SDS011;47850;50.274;18.908;2022-07-06T11:59:35;3.10;;;1.60;;
61897;SDS011;47850;50.274;18.908;2022-07-06T12:04:30;7.20;;;1.40;;
61897;SDS011;47850;50.274;18.908;2022-07-06T12:07:00;3.80;;;1.30;;
61897;SDS011;47850;50.274;18.908;2022-07-06T12:09:31;2.10;;;1.60;;
61897;SDS011;47850;50.274;18.908;2022-07-06T12:11:59;5.50;;;1.40;;
61897;SDS011;47850;50.274;18.908;2022-07-06T12:17:09;5.60;;;2.50;;
61897;SDS011;47850;50.274;18.908;2022-07-06T12:19:38;6.90;;;2.20;;
61897;SDS011;47850;50.274;18.908;2022-07-06T12:22:06;5.90;;;2.40;;
61897;SDS011;47850;50.274;18.908;2022-07-06T12:24:34;4.20;;;2.30;;
61897;SDS011;47850;50.274;18.908;2022-07-06T12:27:13;3.50;;;1.90;;
61897;SDS011;47850;50.274;18.908;2022-07-06T12:29:44;6.80;;;2.60;;
61897;SDS011;47850;50.274;18.908;2022-07-06T12:32:16;4.40;;;2.00;;
61897;SDS011;47850;50.274;18.908;2022-07-06T12:34:45;4.60;;;2.40;;
61897;SDS011;47850;50.274;18.908;2022-07-06T12:37:13;7.50;;;2.10;;
61897;SDS011;47850;50.274;18.908;2022-07-06T12:39:41;5.30;;;1.60;;
61897;SDS011;47850;50.274;18.908;2022-07-06T12:42:10;4.90;;;1.70;;
61897;SDS011;47850;50.274;18.908;2022-07-06T12:44:50;3.10;;;2.00;;
61897;SDS011;47850;50.274;18.908;2022-07-06T12:47:21;6.00;;;1.70;;
61897;SDS011;47850;50.274;18.908;2022-07-06T12:50:04;6.60;;;2.20;;
61897;SDS011;47850;50.274;18.908;2022-07-06T12:52:32;3.90;;;2.30;;
61897;SDS011;47850;50.274;18.908;2022-07-06T12:55:00;3.90;;;2.10;;
61897;SDS011;47850;50.274;18.908;2022-07-06T12:57:27;5.40;;;2.10;;
61897;SDS011;47850;50.274;18.908;2022-07-06T12:59:55;4.00;;;1.60;;
61897;SDS011;47850;50.274;18.908;2022-07-06T13:02:30;4.10;;;1.50;;
61897;SDS011;47850;50.274;18.908;2022-07-06T13:04:59;3.40;;;1.50;;
61897;SDS011;47850;50.274;18.908;2022-07-06T13:07:29;7.40;;;2.30;;
61897;SDS011;47850;50.274;18.908;2022-07-06T13:10:05;2.40;;;1.60;;
61897;SDS011;47850;50.274;18.908;2022-07-06T13:12:33;3.30;;;1.70;;
61897;SDS011;47850;50.274;18.908;2022-07-06T13:15:01;3.30;;;2.00;;
61897;SDS011;47850;50.274;18.908;2022-07-06T13:17:30;2.20;;;1.50;;
61897;SDS011;47850;50.274;18.908;2022-07-06T13:19:56;1.90;;;1.30;;
61897;SDS011;47850;50.274;18.908;2022-07-06T13:22:23;5.40;;;1.30;;
61897;SDS011;47850;50.274;18.908;2022-07-06T13:24:49;3.70;;;1.40;;
61897;SDS011;47850;50.274;18.908;2022-07-06T13:27:16;3.30;;;1.40;;
61897;SDS011;47850;50.274;18.908;2022-07-06T13:29:43;2.80;;;1.30;;
61897;SDS011;47850;50.274;18.908;2022-07-06T13:32:09;2.50;;;1.20;;
61897;SDS011;47850;50.274;18.908;2022-07-06T13:34:36;4.10;;;1.20;;
61897;SDS011;47850;50.274;18.908;2022-07-06T13:37:03;3.70;;;1.50;;
61897;SDS011;47850;50.274;18.908;2022-07-06T13:39:31;6.40;;;2.10;;
61897;SDS011;47850;50.274;18.908;2022-07-06T13:41:58;5.20;;;2.60;;
61897;SDS011;47850;50.274;18.908;2022-07-06T13:44:25;3.20;;;1.70;;
61897;SDS011;47850;50.274;18.908;2022-07-06T13:46:52;3.50;;;1.70;;
61897;SDS011;47850;50.274;18.908;2022-07-06T13:49:19;5.30;;;2.10;;
61897;SDS011;47850;50.274;18.908;2022-07-06T13:51:46;8.30;;;2.10;;
61897;SDS011;47850;50.274;18.908;2022-07-06T13:54:12;2.90;;;1.80;;
61897;SDS011;47850;50.274;18.908;2022-07-06T13:56:39;2.70;;;1.50;;
61897;SDS011;47850;50.274;18.908;2022-07-06T13:59:06;6.20;;;1.40;;
61897;SDS011;47850;50.274;18.908;2022-07-06T14:01:33;2.30;;;1.50;;
61897;SDS011;47850;50.274;18.908;2022-07-06T14:03:59;2.90;;;1.60;;
61897;SDS011;47850;50.274;18.908;2022-07-06T14:06:26;4.80;;;1.50;;
61897;SDS011;47850;50.274;18.908;2022-07-06T14:08:53;6.60;;;1.40;;
61897;SDS011;47850;50.274;18.908;2022-07-06T14:11:19;4.70;;;1.40;;
61897;SDS011;47850;50.274;18.908;2022-07-06T14:13:46;1.70;;;1.20;;
61897;SDS011;47850;50.274;18.908;2022-07-06T14:16:13;3.90;;;1.30;;
61897;SDS011;47850;50.274;18.908;2022-07-06T14:18:39;7.50;;;1.60;;
61897;SDS011;47850;50.274;18.908;2022-07-06T14:21:06;2.40;;;1.40;;
61897;SDS011;47850;50.274;18.908;2022-07-06T14:23:32;2.60;;;1.30;;
61897;SDS011;47850;50.274;18.908;2022-07-06T14:25:59;4.70;;;1.30;;
61897;SDS011;47850;50.274;18.908;2022-07-06T14:28:26;2.30;;;1.30;;
61897;SDS011;47850;50.274;18.908;2022-07-06T14:30:53;3.40;;;1.60;;
61897;SDS011;47850;50.274;18.908;2022-07-06T14:33:20;3.80;;;1.70;;
61897;SDS011;47850;50.274;18.908;2022-07-06T14:35:47;4.20;;;1.20;;
61897;SDS011;47850;50.274;18.908;2022-07-06T14:38:15;3.10;;;1.20;;
61897;SDS011;47850;50.274;18.908;2022-07-06T14:40:42;5.70;;;1.40;;
61897;SDS011;47850;50.274;18.908;2022-07-06T14:43:10;11.60;;;1.80;;